createdAt,value
2023-05-13T00:01:44.680Z,10.51
2023-05-13T00:04:11.487Z,10.44
2023-05-13T00:06:38.438Z,10.35
2023-05-13T00:09:05.435Z,10.36
2023-05-13T00:11:32.237Z,10.35
2023-05-13T00:13:59.003Z,10.35
2023-05-13T00:16:27.868Z,10.32
2023-05-13T00:18:56.099Z,10.28
2023-05-13T00:21:23.716Z,10.16
2023-05-13T00:23:50.648Z,10.08
2023-05-13T00:26:17.450Z,10.06
2023-05-13T00:28:44.232Z,10.05
2023-05-13T00:31:11.451Z,9.98
2023-05-13T00:33:38.325Z,9.95
2023-05-13T00:36:05.601Z,9.82
2023-05-13T00:38:32.919Z,9.75
2023-05-13T00:40:59.714Z,9.69
2023-05-13T00:43:26.546Z,9.66
2023-05-13T00:45:53.367Z,9.65
2023-05-13T00:48:20.334Z,9.67
2023-05-13T00:50:47.739Z,9.62
2023-05-13T00:53:16.513Z,9.40
2023-05-13T00:55:44.512Z,9.54
2023-05-13T00:58:11.909Z,9.51
2023-05-13T01:00:46.943Z,9.54
2023-05-13T01:03:22.095Z,9.44
2023-05-13T01:06:18.766Z,9.55
2023-05-13T01:09:04.181Z,9.54
2023-05-13T01:11:37.672Z,9.52
2023-05-13T01:14:16.711Z,9.59
2023-05-13T01:16:53.101Z,9.66
2023-05-13T01:19:44.278Z,9.67
2023-05-13T01:22:11.184Z,9.60
2023-05-13T01:24:38.008Z,9.58
2023-05-13T01:27:05.865Z,9.52
2023-05-13T01:29:32.893Z,9.62
2023-05-13T01:32:01.325Z,9.53
2023-05-13T01:34:29.540Z,9.50
2023-05-13T01:36:56.520Z,9.47
2023-05-13T01:39:24.515Z,9.47
2023-05-13T01:41:51.487Z,9.46
2023-05-13T01:44:18.238Z,9.44
2023-05-13T01:46:45.427Z,9.49
2023-05-13T01:49:12.620Z,9.46
2023-05-13T01:51:40.414Z,9.51
2023-05-13T01:54:07.272Z,9.53
2023-05-13T01:56:34.270Z,9.69
2023-05-13T01:59:01.121Z,9.81
2023-05-13T02:01:28.004Z,9.95
2023-05-13T02:03:54.839Z,10.09
2023-05-13T02:06:21.634Z,10.22
2023-05-13T02:08:48.368Z,10.36
2023-05-13T02:11:15.118Z,10.50
2023-05-13T02:13:41.920Z,10.63
2023-05-13T02:16:10.989Z,10.78
2023-05-13T02:18:38.072Z,10.92
2023-05-13T02:21:04.829Z,11.01
2023-05-13T02:23:31.569Z,11.11
2023-05-13T02:25:58.336Z,11.18
2023-05-13T02:28:25.111Z,11.22
2023-05-13T02:30:52.271Z,11.27
2023-05-13T02:33:19.101Z,11.36
2023-05-13T02:35:45.828Z,11.37
2023-05-13T02:38:13.200Z,11.40
2023-05-13T02:40:40.059Z,11.51
2023-05-13T02:43:06.933Z,11.58
2023-05-13T02:45:33.856Z,11.66
2023-05-13T02:48:00.678Z,11.65
2023-05-13T02:50:27.543Z,11.74
2023-05-13T02:52:54.276Z,11.79
2023-05-13T02:55:21.135Z,11.80
2023-05-13T02:57:47.842Z,11.85
2023-05-13T03:00:15.233Z,11.85
2023-05-13T03:02:42.201Z,11.89
2023-05-13T03:05:09.768Z,11.90
2023-05-13T03:07:36.514Z,11.93
2023-05-13T03:10:03.391Z,11.96
2023-05-13T03:12:30.281Z,11.99
2023-05-13T03:14:57.057Z,12.02
2023-05-13T03:17:25.047Z,11.97
2023-05-13T03:19:52.037Z,11.91
2023-05-13T03:22:18.860Z,11.84
2023-05-13T03:24:45.636Z,11.85
2023-05-13T03:27:12.390Z,11.78
2023-05-13T03:29:39.232Z,11.79
2023-05-13T03:32:07.056Z,11.81
2023-05-13T03:34:36.263Z,11.76
2023-05-13T03:37:03.055Z,11.75
2023-05-13T03:39:31.772Z,11.76
2023-05-13T03:41:58.542Z,11.56
2023-05-13T03:44:25.298Z,11.67
2023-05-13T03:46:52.239Z,11.65
2023-05-13T03:49:19.216Z,11.54
2023-05-13T03:51:46.056Z,11.61
2023-05-13T03:54:12.777Z,11.46
2023-05-13T03:56:39.496Z,11.39
2023-05-13T03:59:06.331Z,11.47
2023-05-13T04:01:33.105Z,11.49
2023-05-13T04:03:59.843Z,11.52
2023-05-13T04:06:26.681Z,11.52
2023-05-13T04:08:53.391Z,11.58
2023-05-13T04:11:20.190Z,11.62
2023-05-13T04:13:47.045Z,11.63
2023-05-13T04:16:14.571Z,11.62
2023-05-13T04:18:41.380Z,11.54
2023-05-13T04:21:08.989Z,11.41
2023-05-13T04:23:36.217Z,11.45
2023-05-13T04:26:02.980Z,11.45
2023-05-13T04:28:29.935Z,11.39
2023-05-13T04:30:56.655Z,11.40
2023-05-13T04:33:23.400Z,11.38
2023-05-13T04:35:50.138Z,11.41
2023-05-13T04:38:16.879Z,11.40
2023-05-13T04:40:45.158Z,11.40
2023-05-13T04:43:12.488Z,11.45
2023-05-13T04:45:39.667Z,11.47
2023-05-13T04:48:07.009Z,11.41
2023-05-13T04:50:33.881Z,11.44
2023-05-13T04:53:01.173Z,11.45
2023-05-13T04:55:28.048Z,11.41
2023-05-13T04:57:54.888Z,11.39
2023-05-13T05:00:21.870Z,11.40
2023-05-13T05:02:48.869Z,11.39
2023-05-13T05:05:18.223Z,11.41
2023-05-13T05:07:45.355Z,11.43
2023-05-13T05:10:12.098Z,11.45
2023-05-13T05:12:39.559Z,11.46
2023-05-13T05:15:07.218Z,11.47
2023-05-13T05:17:34.188Z,11.42
2023-05-13T05:20:01.159Z,11.38
2023-05-13T05:22:27.928Z,11.40
2023-05-13T05:24:54.678Z,11.43
2023-05-13T05:27:21.515Z,11.47
2023-05-13T05:29:48.271Z,11.55
2023-05-13T05:32:15.058Z,11.60
2023-05-13T05:34:41.972Z,11.39
2023-05-13T05:37:08.737Z,11.62
2023-05-13T05:39:35.577Z,11.50
2023-05-13T05:42:02.519Z,11.50
2023-05-13T05:44:29.282Z,11.61
2023-05-13T05:46:56.152Z,11.65
2023-05-13T05:49:22.964Z,11.71
2023-05-13T05:51:49.784Z,11.76
2023-05-13T05:54:16.544Z,11.70
2023-05-13T05:56:43.570Z,11.83
2023-05-13T05:59:10.449Z,11.95
2023-05-13T06:01:37.194Z,12.02
2023-05-13T06:04:04.611Z,12.09
2023-05-13T06:06:32.502Z,12.18
2023-05-13T06:08:59.379Z,12.09
2023-05-13T06:11:26.405Z,12.12
2023-05-13T06:13:54.473Z,12.22
2023-05-13T06:16:21.265Z,12.33
2023-05-13T06:18:48.082Z,12.47
2023-05-13T06:21:15.020Z,12.58
2023-05-13T06:23:42.492Z,12.55
2023-05-13T06:26:09.260Z,12.76
2023-05-13T06:28:36.112Z,12.82
2023-05-13T06:31:03.058Z,12.82
2023-05-13T06:33:29.897Z,12.67
2023-05-13T06:35:56.773Z,12.50
2023-05-13T06:38:23.547Z,12.47
2023-05-13T06:40:50.354Z,12.57
2023-05-13T06:43:18.200Z,12.68
2023-05-13T06:45:44.969Z,12.78
2023-05-13T06:48:11.971Z,12.85
2023-05-13T06:50:38.760Z,12.92
2023-05-13T06:53:05.506Z,13.09
2023-05-13T06:55:32.521Z,13.25
2023-05-13T19:01:15.815Z,16.82
2023-05-13T19:03:43.135Z,16.73
2023-05-13T19:06:09.998Z,16.58
2023-05-13T19:08:36.819Z,16.51
2023-05-13T19:11:03.682Z,16.44
2023-05-13T19:13:45.711Z,16.36
2023-05-13T19:16:13.550Z,16.31
2023-05-13T19:18:40.293Z,16.27
2023-05-13T19:21:07.093Z,16.21
2023-05-13T19:23:34.081Z,16.23
2023-05-13T19:26:00.888Z,16.25
2023-05-13T19:28:28.183Z,16.22
2023-05-13T19:30:55.024Z,16.21
2023-05-13T19:33:21.765Z,16.14
2023-05-13T19:35:48.683Z,16.04
2023-05-13T19:38:15.663Z,16.01
2023-05-13T19:40:44.771Z,16.00
2023-05-13T19:43:11.531Z,15.96
2023-05-13T19:45:38.324Z,15.92
2023-05-13T19:48:05.339Z,15.84
2023-05-13T19:50:32.097Z,15.76
2023-05-13T19:52:59.014Z,15.70
2023-05-13T19:55:26.878Z,15.55
2023-05-13T19:57:53.657Z,15.39
2023-05-13T20:00:20.871Z,15.27
2023-05-13T20:02:47.911Z,15.11
2023-05-13T20:05:14.749Z,15.04
2023-05-13T20:07:41.811Z,14.91
2023-05-13T20:10:09.416Z,14.79
2023-05-13T20:12:36.198Z,14.66
2023-05-13T20:15:03.716Z,14.53
2023-05-13T20:17:30.982Z,14.39
2023-05-13T20:19:57.898Z,14.27
2023-05-13T20:22:24.916Z,14.11
2023-05-13T20:24:51.769Z,13.92
2023-05-13T20:27:18.804Z,13.81
2023-05-13T20:29:47.595Z,13.73
2023-05-13T20:32:16.821Z,13.60
2023-05-13T20:34:43.623Z,13.47
2023-05-13T20:37:10.423Z,13.40
2023-05-13T20:39:37.240Z,13.27
2023-05-13T20:42:03.995Z,13.17
2023-05-13T20:44:31.099Z,13.12
2023-05-13T20:46:57.954Z,13.06
2023-05-13T20:49:24.683Z,12.93
2023-05-13T20:51:51.602Z,12.86
2023-05-13T20:54:18.352Z,12.79
2023-05-13T20:56:45.101Z,12.73
2023-05-13T20:59:11.958Z,12.69
2023-05-13T21:01:38.772Z,12.66
2023-05-13T21:04:06.649Z,12.57
2023-05-13T21:06:33.541Z,12.51
2023-05-13T21:09:00.310Z,12.46
2023-05-13T21:11:27.234Z,12.39
2023-05-13T21:13:54.059Z,12.38
2023-05-13T21:16:20.969Z,12.35
2023-05-13T21:18:47.826Z,12.31
2023-05-13T21:21:14.849Z,12.30
2023-05-13T21:23:45.794Z,12.22
2023-05-13T21:26:12.834Z,12.15
2023-05-13T21:28:40.055Z,12.09
2023-05-13T21:31:07.068Z,12.08
2023-05-13T21:33:34.144Z,12.06
2023-05-13T21:36:00.942Z,12.01
2023-05-13T21:38:27.900Z,11.96
2023-05-13T21:40:54.612Z,11.92
2023-05-13T21:43:21.360Z,11.89
2023-05-13T21:45:48.397Z,11.88
2023-05-13T21:48:15.392Z,11.85
2023-05-13T21:50:42.423Z,11.81
2023-05-13T21:53:10.491Z,11.78
2023-05-13T21:55:37.245Z,11.77
2023-05-13T21:58:04.171Z,11.75
2023-05-13T22:00:31.803Z,11.70
2023-05-13T22:03:00.405Z,11.66
2023-05-13T22:05:27.830Z,11.60
2023-05-13T22:07:54.584Z,11.57
2023-05-13T22:10:21.405Z,11.54
2023-05-13T22:12:48.587Z,11.48
2023-05-13T22:15:15.989Z,11.40
2023-05-13T22:17:42.992Z,11.43
2023-05-13T22:20:10.239Z,11.39
2023-05-13T22:22:37.006Z,11.37
2023-05-13T22:25:04.036Z,11.33
2023-05-13T22:27:31.049Z,11.31
2023-05-13T22:29:57.808Z,11.28
2023-05-13T22:32:25.070Z,11.25
2023-05-13T22:34:52.076Z,11.21
2023-05-13T22:37:18.864Z,11.17
2023-05-13T22:39:45.578Z,11.20
2023-05-13T22:42:12.318Z,11.23
2023-05-13T22:44:39.183Z,11.29
2023-05-13T22:47:06.402Z,11.36
2023-05-13T22:49:33.167Z,11.37
2023-05-13T22:51:59.900Z,11.42
2023-05-13T22:54:26.748Z,11.42
2023-05-13T22:56:53.534Z,11.48
2023-05-13T22:59:20.311Z,11.52
2023-05-13T23:01:47.113Z,11.54
2023-05-13T23:04:13.959Z,11.55
2023-05-13T23:06:41.509Z,11.53
2023-05-13T23:09:08.844Z,11.51
2023-05-13T23:11:36.784Z,11.54
2023-05-13T23:14:03.525Z,11.52
2023-05-13T23:16:30.439Z,11.51
2023-05-13T23:18:57.256Z,11.48
2023-05-13T23:21:23.991Z,11.46
2023-05-13T23:23:52.128Z,11.51
2023-05-13T23:26:19.002Z,11.51
2023-05-13T23:28:45.904Z,11.50
2023-05-13T23:31:12.697Z,11.47
2023-05-13T23:33:39.518Z,11.49
2023-05-13T23:36:06.613Z,11.45
2023-05-13T23:38:33.385Z,11.44
2023-05-13T23:41:00.205Z,11.46
2023-05-13T23:43:26.927Z,11.44
2023-05-13T23:45:54.210Z,11.46
2023-05-13T23:48:21.050Z,11.43
2023-05-13T23:50:47.910Z,11.44
2023-05-13T23:53:16.290Z,11.41
2023-05-13T23:55:43.082Z,11.37
2023-05-13T23:58:09.814Z,11.32
